Terminal Aerodrome Forecast
Issued by NWS Glasgow, MT

Home | Current Version | Previous Version | Text Only | Print | Product List | Glossary On
Versions: 1 2 3 4 5 6 7 8 9 10 11 12 13 14 15 16
000
FTUS45 KGGW 291100
TAFGGW
TAF
KGGW 291128Z 2912/3012 05007KT P6SM FEW250
     FM291900 09008KT P6SM FEW200
     FM300600 10015KT P6SM SCT200=

USA.gov is the U.S. government's official web portal to all federal, state and local government web resources and services.